Time;durP1;ratioP1;P1;durP2;ratioP2;P2;SDS_P1;SDS_P2;PMS_P1;PMS_P2;Temp;Humidity;BMP_temperature;BMP_pressure;BME280_temperature;BME280_humidity;BME280_pressure;Samples;Min_cycle;Max_cycle;Signal;HPM_P1;HPM_P2
2021/12/09 00:01:00;;;;;;;4.33;2.07;;;3.00;99.90;;;;;;5060385;28;20173;-76
2021/12/09 00:03:34;;;;;;;6.00;1.83;;;2.90;99.90;;;;;;5077621;23;20234;-93
2021/12/09 00:06:11;;;;;;;6.33;1.87;;;3.50;99.90;;;;;;5062615;28;20183;-93
2021/12/09 00:08:45;;;;;;;4.53;2.40;;;2.70;99.90;;;;;;5063422;28;20183;-93
2021/12/09 00:11:13;;;;;;;8.70;2.00;;;2.80;99.90;;;;;;5061798;28;20743;-92
2021/12/09 00:13:45;;;;;;;5.57;1.87;;;2.70;99.90;;;;;;5062985;28;20191;-93
2021/12/09 00:16:14;;;;;;;4.07;2.37;;;2.70;99.90;;;;;;5063025;28;20190;-92
2021/12/09 00:18:43;;;;;;;4.77;2.07;;;2.60;99.90;;;;;;5062525;28;20214;-93
2021/12/09 00:21:12;;;;;;;5.77;2.27;;;2.70;99.90;;;;;;5062795;28;20213;-93
2021/12/09 00:23:40;;;;;;;5.20;2.40;;;3.20;99.90;;;;;;5062442;28;20186;-92
2021/12/09 00:26:09;;;;;;;7.10;2.50;;;2.80;99.90;;;;;;5062442;28;20643;-93
2021/12/09 00:28:47;;;;;;;5.67;2.53;;;3.20;99.90;;;;;;5062130;28;20201;-93
2021/12/09 00:31:23;;;;;;;7.03;2.53;;;2.60;99.90;;;;;;5061536;28;20289;-93
2021/12/09 00:33:50;;;;;;;9.30;2.53;;;2.90;99.90;;;;;;5061865;28;20179;-93
2021/12/09 00:36:27;;;;;;;7.10;2.93;;;2.80;99.90;;;;;;5062076;28;20179;-93
2021/12/09 00:38:58;;;;;;;9.20;2.63;;;2.80;99.90;;;;;;5080400;28;20202;-93
2021/12/09 00:41:27;;;;;;;6.87;3.00;;;3.00;99.90;;;;;;5061560;28;20203;-93
2021/12/09 00:43:55;;;;;;;6.93;2.97;;;2.80;99.90;;;;;;5062728;28;20210;-93
2021/12/09 00:46:23;;;;;;;9.30;2.83;;;3.70;99.90;;;;;;5062191;28;20261;-94
2021/12/09 00:48:51;;;;;;;6.40;2.57;;;2.80;99.90;;;;;;5080769;28;20186;-93
2021/12/09 00:51:18;;;;;;;5.67;3.20;;;2.70;99.90;;;;;;5080355;28;20203;-92
2021/12/09 00:53:48;;;;;;;7.23;2.87;;;2.90;99.90;;;;;;5062106;28;20183;-92
2021/12/09 00:56:17;;;;;;;5.17;2.77;;;2.80;99.90;;;;;;5062046;28;20183;-93
2021/12/09 00:58:49;;;;;;;7.73;2.80;;;2.80;99.90;;;;;;5062267;28;20207;-93
2021/12/09 01:01:18;;;;;;;8.93;2.87;;;2.50;99.90;;;;;;5061341;28;20262;-92
2021/12/09 01:03:44;;;;;;;5.73;2.73;;;2.90;99.90;;;;;;5061224;28;20190;-93
2021/12/09 01:06:15;;;;;;;5.43;2.77;;;2.70;99.90;;;;;;5075729;28;20183;-92
2021/12/09 01:08:44;;;;;;;6.47;2.87;;;4.00;99.90;;;;;;5080857;28;20258;-92
2021/12/09 01:11:14;;;;;;;6.60;2.97;;;2.30;99.90;;;;;;5079915;28;20219;-92
2021/12/09 01:13:41;;;;;;;5.33;3.00;;;2.90;99.90;;;;;;5075288;28;20186;-92
2021/12/09 01:16:09;;;;;;;8.57;3.30;;;2.60;99.90;;;;;;5061908;28;20183;-93
2021/12/09 01:18:37;;;;;;;9.80;4.03;;;2.80;99.90;;;;;;5061936;28;20211;-92
2021/12/09 01:21:03;;;;;;;4.20;2.63;;;2.90;99.90;;;;;;5061175;28;20308;-93
2021/12/09 01:23:41;;;;;;;9.83;3.07;;;2.80;99.90;;;;;;5060688;28;20277;-92
2021/12/09 01:26:18;;;;;;;7.47;3.43;;;2.20;99.90;;;;;;5078409;28;20636;-93
2021/12/09 01:28:55;;;;;;;7.57;3.00;;;3.20;99.90;;;;;;5061920;28;20193;-93
2021/12/09 01:31:35;;;;;;;6.33;2.67;;;2.40;99.90;;;;;;5060415;28;20206;-92
2021/12/09 01:34:03;;;;;;;4.43;2.57;;;2.00;99.90;;;;;;5078803;28;20167;-93
2021/12/09 01:36:39;;;;;;;10.20;3.10;;;2.70;99.90;;;;;;5080918;28;20190;-93
2021/12/09 01:39:11;;;;;;;6.13;2.47;;;2.60;99.90;;;;;;5064758;28;20214;-92
2021/12/09 01:41:37;;;;;;;4.83;2.33;;;2.80;99.90;;;;;;5079978;28;20206;-93
2021/12/09 01:44:06;;;;;;;8.57;3.33;;;2.40;99.90;;;;;;5061003;28;20183;-92
2021/12/09 01:46:31;;;;;;;9.50;2.93;;;2.80;99.90;;;;;;5071873;23;20616;-76
2021/12/09 01:48:57;;;;;;;6.07;2.53;;;2.30;99.90;;;;;;5074174;28;20179;-76
2021/12/09 01:51:23;;;;;;;8.20;2.77;;;2.30;99.90;;;;;;5073438;28;20181;-76
2021/12/09 01:53:49;;;;;;;8.00;2.73;;;2.30;99.90;;;;;;5072892;28;20199;-76
2021/12/09 01:56:21;;;;;;;3.97;2.57;;;2.30;99.90;;;;;;5072935;28;20183;-76
2021/12/09 01:58:52;;;;;;;5.37;2.50;;;2.30;99.90;;;;;;5073051;28;20199;-77
2021/12/09 02:01:18;;;;;;;4.40;2.27;;;2.20;99.90;;;;;;5055305;28;20179;-76
2021/12/09 02:03:44;;;;;;;9.73;3.13;;;2.30;99.90;;;;;;5056243;28;20203;-76
2021/12/09 02:06:10;;;;;;;6.03;2.87;;;2.30;99.90;;;;;;5057726;28;20179;-75
2021/12/09 02:08:35;;;;;;;9.90;2.73;;;2.20;99.90;;;;;;5075632;28;20214;-76
2021/12/09 02:11:01;;;;;;;4.93;2.23;;;2.30;99.90;;;;;;5073411;28;20183;-76
2021/12/09 02:13:27;;;;;;;5.60;2.47;;;2.20;99.90;;;;;;5054163;28;20217;-76
2021/12/09 02:15:55;;;;;;;10.67;2.57;;;2.20;99.90;;;;;;5055063;28;20186;-76
2021/12/09 02:18:21;;;;;;;6.70;2.83;;;2.20;99.90;;;;;;5054845;28;20198;-76
2021/12/09 02:21:22;;;;;;;6.03;2.33;;;2.20;99.90;;;;;;5054945;28;20183;-76
2021/12/09 02:23:51;;;;;;;6.50;2.47;;;2.10;99.90;;;;;;5071985;28;20203;-76
2021/12/09 02:26:20;;;;;;;6.87;2.33;;;2.10;99.90;;;;;;5054815;28;20179;-76
2021/12/09 02:28:46;;;;;;;7.00;2.37;;;2.00;99.90;;;;;;5072860;28;20580;-76
2021/12/09 02:31:12;;;;;;;3.43;2.20;;;2.10;99.90;;;;;;5054807;28;20197;-76
2021/12/09 02:33:38;;;;;;;4.77;2.67;;;2.00;99.90;;;;;;5072258;28;20212;-76
2021/12/09 02:36:05;;;;;;;7.03;2.73;;;2.00;99.90;;;;;;5072754;28;20182;-76
2021/12/09 02:38:31;;;;;;;6.07;2.43;;;2.00;99.90;;;;;;5072628;28;20668;-76
2021/12/09 02:40:58;;;;;;;9.20;2.97;;;2.00;99.90;;;;;;5054477;28;20281;-76
2021/12/09 02:43:29;;;;;;;6.13;2.43;;;2.00;99.90;;;;;;5072587;28;20203;-76
2021/12/09 02:45:56;;;;;;;7.73;3.07;;;2.00;99.90;;;;;;5054677;28;20211;-76
2021/12/09 02:48:23;;;;;;;8.67;2.70;;;1.90;99.90;;;;;;5054700;28;20244;-76
2021/12/09 02:50:50;;;;;;;8.43;2.70;;;1.90;99.90;;;;;;5072190;28;20187;-76
2021/12/09 02:53:15;;;;;;;6.07;2.50;;;1.90;99.90;;;;;;5072536;28;20198;-76
2021/12/09 02:55:42;;;;;;;5.17;2.37;;;1.90;99.90;;;;;;5072895;28;20186;-75
2021/12/09 02:58:07;;;;;;;5.73;2.53;;;1.80;99.90;;;;;;5072595;28;20290;-76
2021/12/09 03:00:33;;;;;;;3.33;2.03;;;1.70;99.90;;;;;;5072496;28;20276;-76
2021/12/09 03:02:59;;;;;;;3.40;2.13;;;1.70;99.90;;;;;;5054612;28;20206;-76
2021/12/09 03:05:27;;;;;;;4.17;2.00;;;1.70;99.90;;;;;;5054608;28;20175;-75
2021/12/09 03:07:53;;;;;;;4.50;2.23;;;1.70;99.90;;;;;;5054333;28;20289;-76
2021/12/09 03:10:24;;;;;;;3.87;1.90;;;1.60;99.90;;;;;;5072556;28;20633;-76
2021/12/09 03:13:00;;;;;;;4.90;2.30;;;1.50;99.90;;;;;;5054398;28;20261;-76
2021/12/09 03:15:25;;;;;;;3.93;2.30;;;1.40;99.90;;;;;;5072394;28;20189;-76
2021/12/09 03:17:51;;;;;;;7.33;2.47;;;1.40;99.90;;;;;;5072201;28;20206;-76
2021/12/09 03:20:19;;;;;;;6.73;2.47;;;1.40;99.90;;;;;;5072603;28;20197;-75
2021/12/09 03:22:47;;;;;;;6.80;2.80;;;1.30;99.90;;;;;;5072316;28;20199;-76
2021/12/09 03:25:15;;;;;;;8.63;2.50;;;1.30;99.90;;;;;;5074670;28;20206;-76
2021/12/09 03:27:41;;;;;;;4.73;2.03;;;1.30;99.90;;;;;;5075616;28;20222;-75
2021/12/09 03:30:11;;;;;;;4.20;2.10;;;1.30;99.90;;;;;;5075586;28;20219;-74
2021/12/09 03:32:37;;;;;;;6.40;2.60;;;1.20;99.90;;;;;;5075871;28;20249;-76
2021/12/09 03:35:05;;;;;;;3.37;2.13;;;1.10;99.90;;;;;;5075342;28;20183;-77
2021/12/09 03:37:30;;;;;;;4.90;2.70;;;1.10;99.90;;;;;;5075081;28;20203;-75
2021/12/09 03:39:56;;;;;;;5.07;2.40;;;1.10;99.90;;;;;;5057776;28;20214;-76
2021/12/09 03:42:25;;;;;;;4.23;2.63;;;1.10;99.90;;;;;;5075681;28;20194;-76
2021/12/09 03:44:52;;;;;;;5.30;2.70;;;1.00;99.90;;;;;;5057791;28;20216;-76
2021/12/09 03:47:21;;;;;;;5.40;2.80;;;1.00;99.90;;;;;;5075324;28;20206;-76
2021/12/09 03:49:47;;;;;;;8.87;2.60;;;1.00;99.90;;;;;;5075879;28;20191;-76
2021/12/09 03:52:13;;;;;;;6.07;2.60;;;1.00;99.90;;;;;;5075503;28;20186;-76
2021/12/09 03:54:40;;;;;;;7.77;2.70;;;0.90;99.90;;;;;;5057606;28;20641;-76
2021/12/09 03:57:06;;;;;;;5.80;2.70;;;0.90;99.90;;;;;;5075259;28;20186;-76
2021/12/09 03:59:33;;;;;;;9.77;2.60;;;0.90;99.90;;;;;;5075222;28;20174;-76
2021/12/09 04:01:58;;;;;;;5.20;2.43;;;0.90;99.90;;;;;;5075431;28;20178;-75
2021/12/09 04:04:24;;;;;;;4.70;2.60;;;0.80;99.90;;;;;;5057375;28;20194;-76
2021/12/09 04:06:51;;;;;;;12.00;3.07;;;0.80;99.90;;;;;;5075458;28;20595;-76
2021/12/09 04:09:19;;;;;;;5.97;2.80;;;0.90;99.90;;;;;;5074795;28;20213;-76
2021/12/09 04:11:46;;;;;;;8.97;2.87;;;0.90;99.90;;;;;;5075510;28;20230;-76
2021/12/09 04:14:12;;;;;;;6.30;2.87;;;0.90;99.90;;;;;;5075071;28;20577;-75
2021/12/09 04:16:38;;;;;;;6.23;2.87;;;0.80;99.90;;;;;;5075098;28;20668;-76
2021/12/09 04:19:06;;;;;;;6.23;2.80;;;0.80;99.90;;;;;;5074763;28;20217;-75
2021/12/09 04:21:32;;;;;;;4.43;2.70;;;0.80;99.90;;;;;;5057115;28;20193;-75
2021/12/09 04:23:58;;;;;;;5.93;2.30;;;0.80;99.90;;;;;;5056852;28;20199;-75
2021/12/09 04:26:23;;;;;;;4.73;2.37;;;0.80;99.90;;;;;;5057011;28;20190;-76
2021/12/09 04:28:49;;;;;;;5.27;2.00;;;0.90;99.90;;;;;;5074615;28;20191;-76
2021/12/09 04:31:15;;;;;;;8.10;2.60;;;0.80;99.90;;;;;;5074730;28;20656;-76
2021/12/09 04:33:42;;;;;;;9.13;2.53;;;0.80;99.90;;;;;;5074822;28;20321;-76
2021/12/09 04:36:10;;;;;;;7.30;2.53;;;0.80;99.90;;;;;;5074109;28;20175;-76
2021/12/09 04:38:36;;;;;;;7.93;2.87;;;0.80;99.90;;;;;;5074272;28;20194;-75
2021/12/09 04:41:02;;;;;;;6.00;3.07;;;0.70;99.90;;;;;;5056653;28;20182;-76
2021/12/09 04:43:28;;;;;;;7.57;2.60;;;0.70;99.90;;;;;;5056589;28;20201;-76
2021/12/09 04:45:53;;;;;;;11.33;2.93;;;0.70;99.90;;;;;;5056611;28;20243;-76
2021/12/09 04:48:19;;;;;;;8.30;3.10;;;0.70;99.90;;;;;;5056275;28;20198;-76
2021/12/09 04:50:45;;;;;;;8.60;3.20;;;0.80;99.90;;;;;;5074453;28;20178;-76
2021/12/09 04:53:11;;;;;;;6.50;2.90;;;0.80;99.90;;;;;;5074343;28;20202;-76
2021/12/09 04:55:37;;;;;;;13.07;3.33;;;0.80;99.90;;;;;;5056436;28;20734;-76
2021/12/09 04:58:06;;;;;;;6.23;3.47;;;0.80;99.90;;;;;;5056103;28;20256;-75
2021/12/09 05:00:32;;;;;;;12.30;3.90;;;0.80;99.90;;;;;;5056387;28;20181;-75
2021/12/09 05:03:07;;;;;;;6.17;3.83;;;0.90;99.90;;;;;;5074087;28;20247;-76
2021/12/09 05:05:38;;;;;;;11.07;3.60;;;0.90;99.90;;;;;;5074206;28;20162;-76
2021/12/09 05:08:07;;;;;;;8.23;3.43;;;0.90;99.90;;;;;;5055910;28;20185;-76
2021/12/09 05:10:47;;;;;;;8.40;3.20;;;0.90;99.90;;;;;;5056228;28;20201;-76
2021/12/09 05:13:13;;;;;;;9.13;3.77;;;0.90;99.90;;;;;;5073988;28;20265;-76
2021/12/09 05:15:39;;;;;;;8.30;3.33;;;0.90;99.90;;;;;;5074006;28;20174;-76
2021/12/09 05:18:04;;;;;;;9.20;3.30;;;0.90;99.90;;;;;;5055942;28;20210;-76
2021/12/09 05:20:30;;;;;;;6.77;3.13;;;0.90;99.90;;;;;;5057460;28;20190;-76
2021/12/09 05:22:55;;;;;;;6.83;3.30;;;0.80;99.90;;;;;;5078217;28;20555;-76
2021/12/09 05:25:21;;;;;;;8.97;3.53;;;0.80;99.90;;;;;;5060498;28;20203;-76
2021/12/09 05:27:48;;;;;;;9.10;3.77;;;0.80;99.90;;;;;;5073602;28;20289;-75
2021/12/09 05:30:13;;;;;;;8.37;3.47;;;0.80;99.90;;;;;;5073710;28;20179;-76
2021/12/09 05:32:39;;;;;;;11.07;2.90;;;0.70;99.90;;;;;;5055781;28;20229;-76
2021/12/09 05:35:06;;;;;;;8.53;3.33;;;0.70;99.90;;;;;;5073834;28;20209;-76
2021/12/09 05:37:32;;;;;;;8.00;3.13;;;0.70;99.90;;;;;;5055239;28;20220;-76
2021/12/09 05:39:59;;;;;;;8.87;3.57;;;0.70;99.90;;;;;;5073422;28;20179;-74
2021/12/09 05:42:26;;;;;;;10.83;3.50;;;0.70;99.90;;;;;;5073330;28;20735;-76
2021/12/09 05:44:52;;;;;;;13.00;3.57;;;0.70;99.90;;;;;;5073496;28;20189;-76
2021/12/09 05:47:18;;;;;;;7.87;3.00;;;0.70;99.90;;;;;;5072468;28;20239;-76
2021/12/09 05:49:47;;;;;;;5.10;3.20;;;0.60;99.90;;;;;;5055049;28;20613;-76
2021/12/09 05:52:14;;;;;;;5.70;2.70;;;0.60;99.90;;;;;;5073258;28;20170;-76
2021/12/09 05:54:40;;;;;;;8.17;3.50;;;0.60;99.90;;;;;;5055437;28;20186;-76
2021/12/09 05:57:06;;;;;;;9.13;3.77;;;0.60;99.90;;;;;;5072877;28;20317;-76
2021/12/09 05:59:31;;;;;;;8.17;3.60;;;0.60;99.90;;;;;;5055256;28;20681;-76
2021/12/09 06:01:57;;;;;;;6.93;3.80;;;0.60;99.90;;;;;;5055113;28;20181;-76
2021/12/09 06:04:24;;;;;;;8.97;3.33;;;0.70;99.90;;;;;;5073021;28;20287;-75
2021/12/09 06:06:51;;;;;;;8.03;3.30;;;0.60;99.90;;;;;;5055032;28;20316;-77
2021/12/09 06:09:17;;;;;;;8.17;3.70;;;0.70;99.90;;;;;;5071516;28;20212;-76
2021/12/09 06:11:46;;;;;;;7.83;3.90;;;0.70;99.90;;;;;;5073036;28;20186;-75
2021/12/09 06:14:13;;;;;;;5.93;3.47;;;0.70;99.90;;;;;;5072918;28;20222;-76
2021/12/09 06:16:38;;;;;;;7.60;3.87;;;0.70;99.90;;;;;;5073249;28;20244;-76
2021/12/09 06:19:04;;;;;;;10.60;3.50;;;0.70;99.90;;;;;;5072588;28;20209;-75
2021/12/09 06:21:30;;;;;;;7.43;3.40;;;0.70;99.90;;;;;;5073086;28;20205;-76
2021/12/09 06:23:59;;;;;;;5.03;3.20;;;0.70;99.90;;;;;;5072880;28;20575;-76
2021/12/09 06:26:25;;;;;;;5.93;3.67;;;0.70;99.90;;;;;;5072894;28;20167;-76
2021/12/09 06:28:51;;;;;;;9.57;3.50;;;0.70;99.90;;;;;;5072645;28;20183;-76
2021/12/09 06:31:17;;;;;;;10.50;3.57;;;0.70;99.90;;;;;;5054867;28;20191;-76
2021/12/09 06:33:42;;;;;;;11.03;3.83;;;0.70;99.90;;;;;;5054766;28;20205;-76
2021/12/09 06:36:08;;;;;;;7.93;3.60;;;0.70;99.90;;;;;;5073085;28;20182;-77
2021/12/09 06:38:35;;;;;;;10.93;3.87;;;0.70;99.90;;;;;;5055700;28;20206;-77
2021/12/09 06:41:01;;;;;;;10.27;4.00;;;0.70;99.90;;;;;;5056029;28;20320;-76
2021/12/09 06:43:27;;;;;;;6.80;4.40;;;0.70;99.90;;;;;;5072759;28;20246;-76
2021/12/09 06:45:54;;;;;;;12.17;4.53;;;0.70;99.90;;;;;;5073006;28;20186;-76
2021/12/09 06:48:20;;;;;;;8.83;4.20;;;0.70;99.90;;;;;;5072410;28;20210;-76
2021/12/09 06:50:46;;;;;;;9.23;4.70;;;0.70;99.90;;;;;;5054685;28;20679;-76
2021/12/09 06:53:14;;;;;;;20.40;5.40;;;0.70;99.90;;;;;;5072743;28;20206;-76
2021/12/09 06:55:40;;;;;;;9.43;4.20;;;0.70;99.90;;;;;;5054650;28;20681;-76
2021/12/09 06:58:06;;;;;;;7.33;4.37;;;0.70;99.90;;;;;;5054241;28;20210;-77
2021/12/09 07:00:33;;;;;;;9.17;4.20;;;0.70;99.90;;;;;;5057939;28;20272;-76
2021/12/09 07:02:59;;;;;;;9.20;5.23;;;0.70;99.90;;;;;;5076421;28;20269;-76
2021/12/09 07:05:27;;;;;;;11.23;5.73;;;0.70;99.90;;;;;;5076610;28;20205;-76
2021/12/09 07:07:52;;;;;;;11.67;5.90;;;0.80;99.90;;;;;;5076227;28;20193;-76
2021/12/09 07:10:19;;;;;;;18.40;6.87;;;0.70;99.90;;;;;;5076411;28;20177;-77
2021/12/09 07:12:47;;;;;;;16.63;6.43;;;0.80;99.90;;;;;;5076264;28;20209;-76
2021/12/09 07:15:14;;;;;;;13.50;6.57;;;0.80;99.90;;;;;;5058324;28;20186;-76
2021/12/09 07:17:40;;;;;;;17.27;8.20;;;0.80;99.90;;;;;;5076091;28;20247;-77
2021/12/09 07:20:09;;;;;;;13.23;7.50;;;0.80;99.90;;;;;;5076877;28;20179;-77
2021/12/09 07:22:34;;;;;;;19.67;8.43;;;0.80;99.90;;;;;;5077146;28;20202;-76
2021/12/09 07:25:00;;;;;;;13.00;8.00;;;0.80;99.90;;;;;;5077770;28;20551;-78
2021/12/09 07:27:26;;;;;;;16.73;8.63;;;0.80;99.90;;;;;;5074890;28;20261;-76
2021/12/09 07:29:51;;;;;;;13.60;8.93;;;0.90;99.90;;;;;;5076040;28;20544;-77
2021/12/09 07:32:17;;;;;;;15.60;8.83;;;0.90;99.90;;;;;;5058015;28;20190;-77
2021/12/09 07:34:42;;;;;;;18.13;9.27;;;0.90;99.90;;;;;;5076159;28;20182;-77
2021/12/09 07:37:08;;;;;;;16.17;10.10;;;0.80;99.90;;;;;;5076838;28;20710;-77
2021/12/09 07:39:35;;;;;;;14.63;10.20;;;0.80;99.90;;;;;;5088304;23;20273;-78
2021/12/09 07:42:01;;;;;;;19.47;10.97;;;0.80;99.90;;;;;;5037917;28;20194;-77
2021/12/09 07:44:27;;;;;;;18.67;11.03;;;0.80;99.90;;;;;;5055791;28;20296;-77
2021/12/09 07:46:54;;;;;;;15.63;10.70;;;0.80;99.90;;;;;;5037849;28;20183;-77
2021/12/09 07:49:21;;;;;;;15.33;11.10;;;0.80;99.90;;;;;;5055650;28;20225;-77
2021/12/09 07:51:47;;;;;;;16.70;12.77;;;0.80;99.90;;;;;;5056454;28;20176;-78
2021/12/09 07:54:13;;;;;;;16.80;12.53;;;0.80;99.90;;;;;;5056519;28;20188;-77
2021/12/09 07:56:38;;;;;;;18.37;11.83;;;0.90;99.90;;;;;;5053827;28;20264;-77
2021/12/09 07:59:04;;;;;;;17.80;11.67;;;0.80;99.90;;;;;;5055017;28;20641;-77
2021/12/09 08:01:30;;;;;;;19.30;11.87;;;0.80;99.90;;;;;;5055552;28;20184;-77
2021/12/09 08:03:56;;;;;;;17.73;12.13;;;0.80;99.90;;;;;;5055467;28;20187;-76
2021/12/09 08:06:22;;;;;;;26.67;12.90;;;0.90;99.90;;;;;;5055458;28;20187;-77
2021/12/09 08:08:47;;;;;;;20.97;12.90;;;0.90;99.90;;;;;;5037069;28;20208;-78
2021/12/09 08:11:13;;;;;;;21.27;13.23;;;0.90;99.90;;;;;;5054106;28;20197;-77
2021/12/09 08:13:39;;;;;;;28.37;15.30;;;0.90;99.90;;;;;;5037256;28;20187;-77
2021/12/09 08:16:04;;;;;;;27.60;15.73;;;0.90;99.90;;;;;;5037230;28;20240;-77
2021/12/09 08:18:43;;;;;;;29.03;15.63;;;0.90;99.90;;;;;;5055142;28;20348;-78
2021/12/09 08:21:08;;;;;;;27.47;18.30;;;0.90;99.90;;;;;;5036892;28;20194;-77
2021/12/09 08:23:34;;;;;;;29.50;18.47;;;1.00;99.90;;;;;;5055052;28;20187;-77
2021/12/09 08:25:59;;;;;;;23.73;18.10;;;1.00;99.90;;;;;;5037189;28;20270;-77
2021/12/09 08:28:25;;;;;;;33.80;18.83;;;1.00;99.90;;;;;;5054980;28;20191;-78
2021/12/09 08:30:52;;;;;;;28.97;18.37;;;1.00;99.90;;;;;;5055124;28;20209;-77
2021/12/09 08:33:23;;;;;;;29.03;19.53;;;1.00;99.90;;;;;;5054576;28;20180;-78
2021/12/09 08:35:49;;;;;;;27.30;19.70;;;1.00;99.90;;;;;;5036907;28;20187;-78
2021/12/09 08:38:15;;;;;;;27.00;19.10;;;1.10;99.90;;;;;;5054608;28;20213;-77
2021/12/09 08:40:43;;;;;;;23.33;17.87;;;1.10;99.90;;;;;;5054584;28;20282;-77
2021/12/09 08:43:09;;;;;;;28.47;17.77;;;1.10;99.90;;;;;;5054641;28;20198;-77
2021/12/09 08:45:35;;;;;;;23.97;17.30;;;1.20;99.90;;;;;;5054376;28;20168;-77
2021/12/09 08:48:00;;;;;;;30.57;17.10;;;1.20;99.90;;;;;;5054159;28;20688;-77
2021/12/09 08:50:32;;;;;;;30.20;16.73;;;1.20;99.90;;;;;;5035066;28;20212;-78
2021/12/09 08:52:59;;;;;;;23.50;15.67;;;1.30;99.90;;;;;;5054286;28;20510;-76
2021/12/09 08:55:24;;;;;;;22.50;15.10;;;1.30;99.90;;;;;;5053906;28;20567;-77
2021/12/09 08:57:51;;;;;;;19.47;13.80;;;1.40;99.90;;;;;;5035900;28;20234;-78
2021/12/09 09:00:18;;;;;;;17.47;13.47;;;1.40;99.90;;;;;;5035844;28;20282;-77
2021/12/09 09:02:46;;;;;;;27.73;13.23;;;1.40;99.90;;;;;;5053753;28;20617;-77
2021/12/09 09:05:13;;;;;;;20.63;12.00;;;1.50;99.90;;;;;;5035689;28;20187;-79
2021/12/09 09:07:47;;;;;;;22.60;11.97;;;1.50;99.90;;;;;;5034354;28;20207;-78
2021/12/09 09:10:16;;;;;;;17.07;11.17;;;1.60;99.90;;;;;;5053649;28;20261;-77
2021/12/09 09:12:42;;;;;;;20.43;10.93;;;1.60;99.90;;;;;;5053185;28;20186;-77
2021/12/09 09:15:10;;;;;;;17.83;9.00;;;1.70;99.90;;;;;;5035710;28;20183;-77
2021/12/09 09:17:36;;;;;;;17.20;8.97;;;1.70;99.90;;;;;;5053425;28;20669;-77
2021/12/09 09:20:04;;;;;;;15.73;9.00;;;1.80;99.90;;;;;;5053690;28;20261;-77
2021/12/09 09:22:30;;;;;;;19.90;8.03;;;1.90;99.90;;;;;;5035379;28;20256;-77
2021/12/09 09:24:56;;;;;;;19.43;8.60;;;1.90;99.90;;;;;;5053627;28;20713;-77
2021/12/09 09:27:21;;;;;;;15.33;7.50;;;2.00;99.90;;;;;;5053235;28;20237;-77
2021/12/09 09:29:47;;;;;;;15.43;7.97;;;2.10;99.90;;;;;;5053202;28;20286;-78
2021/12/09 09:32:13;;;;;;;18.00;8.37;;;2.10;99.90;;;;;;5053519;28;20179;-77
2021/12/09 09:34:39;;;;;;;19.00;7.67;;;2.20;99.90;;;;;;5053171;28;20175;-78
2021/12/09 09:37:05;;;;;;;11.67;7.27;;;2.30;99.90;;;;;;5053417;28;20176;-77
2021/12/09 09:39:33;;;;;;;15.83;7.37;;;2.40;99.90;;;;;;5052860;28;20219;-78
2021/12/09 09:42:19;;;;;;;13.20;6.37;;;2.40;99.90;;;;;;5052783;28;20175;-78
2021/12/09 09:44:54;;;;;;;14.37;6.77;;;2.50;99.90;;;;;;5053076;28;20163;-77
2021/12/09 09:47:22;;;;;;;19.73;6.77;;;2.60;99.90;;;;;;5053066;28;20148;-77
2021/12/09 09:49:48;;;;;;;14.70;6.73;;;2.60;99.90;;;;;;5053000;28;20286;-76
2021/12/09 09:52:14;;;;;;;10.20;6.53;;;2.70;99.90;;;;;;5052950;28;20172;-77
2021/12/09 09:54:41;;;;;;;13.37;6.00;;;2.70;99.90;;;;;;5035159;28;20209;-77
2021/12/09 09:57:09;;;;;;;17.10;7.00;;;2.80;99.90;;;;;;5053164;28;20172;-78
2021/12/09 09:59:36;;;;;;;15.70;6.33;;;2.90;99.90;;;;;;5052499;28;20700;-77
2021/12/09 10:02:03;;;;;;;20.87;7.30;;;2.90;99.90;;;;;;5053429;28;20695;-76
2021/12/09 10:07:01;;;;;;;15.03;6.57;;;3.00;99.90;;;;;;5053183;28;20250;-77
2021/12/09 10:09:27;;;;;;;19.20;6.50;;;3.10;99.90;;;;;;5052944;28;20623;-77
2021/12/09 10:11:56;;;;;;;14.17;5.47;;;3.10;99.90;;;;;;5034840;28;20218;-76
2021/12/09 10:14:26;;;;;;;13.70;5.67;;;3.20;99.90;;;;;;5052537;28;20191;-77
2021/12/09 10:17:13;;;;;;;16.13;5.73;;;3.20;99.90;;;;;;5034869;28;20593;-76
2021/12/09 10:19:49;;;;;;;15.53;6.50;;;3.30;99.90;;;;;;5052806;28;20207;-77
2021/12/09 10:22:20;;;;;;;11.93;5.53;;;3.30;99.90;;;;;;5052503;28;20172;-77
2021/12/09 10:24:48;;;;;;;12.33;5.73;;;3.30;99.90;;;;;;5052661;28;20158;-77
2021/12/09 10:27:30;;;;;;;10.83;5.93;;;3.40;99.90;;;;;;5052754;28;20175;-76
2021/12/09 10:30:16;;;;;;;14.13;5.70;;;3.40;99.90;;;;;;5034330;28;20195;-78
2021/12/09 10:32:43;;;;;;;15.17;5.97;;;3.50;99.90;;;;;;5052622;28;20652;-77
2021/12/09 10:35:18;;;;;;;14.63;5.80;;;3.60;99.90;;;;;;5051497;28;20188;-77
2021/12/09 10:37:47;;;;;;;15.93;5.60;;;3.60;99.90;;;;;;5034607;28;20195;-77
2021/12/09 10:40:21;;;;;;;10.47;5.40;;;3.60;99.90;;;;;;5034453;28;20288;-77
2021/12/09 10:42:50;;;;;;;15.53;6.10;;;3.70;99.90;;;;;;5054615;28;20649;-77
2021/12/09 10:45:31;;;;;;;7.33;5.47;;;3.70;99.90;;;;;;5036794;28;20707;-78
2021/12/09 10:51:06;;;;;;;11.67;5.93;;;3.80;99.90;;;;;;5032839;28;20204;-77
2021/12/09 10:53:46;;;;;;;9.97;4.57;;;3.80;99.90;;;;;;5032581;28;20256;-77
2021/12/09 10:56:13;;;;;;;11.03;4.77;;;3.90;99.90;;;;;;5014740;28;20184;-76
2021/12/09 10:58:43;;;;;;;13.53;4.27;;;3.90;99.90;;;;;;5032636;28;20295;-77
2021/12/09 11:01:17;;;;;;;10.83;4.83;;;4.00;99.90;;;;;;5014651;28;20173;-77
2021/12/09 11:03:49;;;;;;;9.17;4.70;;;4.10;99.90;;;;;;5033073;28;20160;-78
2021/12/09 11:06:19;;;;;;;11.97;4.63;;;4.10;99.90;;;;;;5032489;28;20296;-77
2021/12/09 11:08:47;;;;;;;11.70;4.70;;;4.10;99.90;;;;;;5048636;28;20208;-76
2021/12/09 11:11:33;;;;;;;8.40;4.13;;;4.10;99.90;;;;;;5034362;28;20669;-77
2021/12/09 11:14:03;;;;;;;9.73;4.43;;;4.20;99.90;;;;;;5034399;28;20645;-77
2021/12/09 11:16:39;;;;;;;10.53;4.50;;;4.20;99.90;;;;;;5052250;28;20662;-77
2021/12/09 11:19:13;;;;;;;11.10;4.40;;;4.30;99.90;;;;;;5052251;28;20208;-77
2021/12/09 11:21:44;;;;;;;8.87;4.60;;;4.30;99.90;;;;;;5052297;28;20165;-78
2021/12/09 11:24:14;;;;;;;10.13;4.30;;;4.40;99.90;;;;;;5051967;28;20668;-78
2021/12/09 11:26:49;;;;;;;10.90;3.73;;;4.40;99.90;;;;;;5034369;28;20207;-78
2021/12/09 11:29:30;;;;;;;10.00;4.73;;;4.40;99.90;;;;;;5034289;28;20199;-78
2021/12/09 11:32:00;;;;;;;7.00;3.67;;;4.50;99.90;;;;;;5052597;28;20529;-78
2021/12/09 11:34:53;;;;;;;12.03;4.60;;;4.60;99.90;;;;;;5035106;28;20187;-80
2021/12/09 11:40:14;;;;;;;8.20;3.63;;;4.60;99.90;;;;;;5054742;28;20310;-79
2021/12/09 11:42:47;;;;;;;11.23;4.23;;;4.60;99.90;;;;;;5037047;28;20176;-79
2021/12/09 11:45:15;;;;;;;11.50;4.27;;;4.70;99.90;;;;;;5055256;28;20183;-79
2021/12/09 11:47:42;;;;;;;9.87;3.70;;;4.70;99.90;;;;;;5040160;28;20684;-79
2021/12/09 11:50:13;;;;;;;13.10;4.20;;;4.70;99.90;;;;;;5041367;28;20585;-79
2021/12/09 11:52:40;;;;;;;9.00;4.00;;;4.70;99.90;;;;;;5058955;28;20171;-79
2021/12/09 11:55:08;;;;;;;11.53;4.33;;;4.70;99.90;;;;;;5058214;28;20262;-79
2021/12/09 12:12:32;;;;;;;9.93;4.30;;;4.70;99.90;;;;;;5038946;28;20255;-79
2021/12/09 12:20:52;;;;;;;9.07;4.03;;;4.70;99.90;;;;;;5059455;28;20188;-79
2021/12/09 12:26:31;;;;;;;16.43;4.73;;;4.80;99.90;;;;;;5041843;28;20610;-78
2021/12/09 12:35:06;;;;;;;8.17;3.10;;;4.80;99.90;;;;;;5047603;28;20175;-79
2021/12/09 12:37:57;;;;;;;8.73;3.60;;;4.90;99.90;;;;;;5061215;28;20175;-79
2021/12/09 12:40:25;;;;;;;9.00;3.73;;;4.80;99.90;;;;;;5042544;28;20218;-78
2021/12/09 12:43:00;;;;;;;6.30;3.03;;;4.90;99.90;;;;;;5060646;28;20172;-78
2021/12/09 12:46:00;;;;;;;7.50;3.10;;;4.90;99.90;;;;;;5041308;28;20206;-80
2021/12/09 12:51:09;;;;;;;8.43;2.60;;;4.90;99.90;;;;;;5060572;28;20163;-79
2021/12/09 12:53:43;;;;;;;5.73;2.90;;;4.90;99.90;;;;;;5060057;28;20262;-78
2021/12/09 12:56:26;;;;;;;11.57;3.17;;;4.90;99.90;;;;;;5059171;28;20544;-79
2021/12/09 12:59:08;;;;;;;10.40;3.37;;;4.90;99.90;;;;;;5040485;28;20249;-79
2021/12/09 13:01:47;;;;;;;6.10;3.37;;;4.90;99.90;;;;;;5040879;28;20266;-78
2021/12/09 13:04:59;;;;;;;6.03;3.00;;;4.90;99.90;;;;;;5040634;28;20325;-79
2021/12/09 13:08:05;;;;;;;8.43;3.30;;;4.80;99.90;;;;;;5057896;28;20168;-79
2021/12/09 13:13:39;;;;;;;5.37;3.13;;;4.80;99.90;;;;;;5059576;28;20156;-78
2021/12/09 13:16:20;;;;;;;8.07;2.80;;;4.90;99.90;;;;;;5059633;28;20205;-79
2021/12/09 13:19:12;;;;;;;6.50;2.73;;;4.80;99.90;;;;;;5042002;28;20230;-79
2021/12/09 13:21:36;;;;;;;5.60;2.90;;;4.80;99.90;;;;;;5059391;28;20191;-79
2021/12/09 13:27:34;;;;;;;9.37;3.40;;;4.80;99.90;;;;;;5052023;28;20179;-79
2021/12/09 13:33:42;;;;;;;5.00;2.97;;;4.90;99.90;;;;;;5060862;28;20259;-79
2021/12/09 13:36:40;;;;;;;7.87;3.87;;;4.90;99.90;;;;;;5040717;28;20187;-79
2021/12/09 13:47:34;;;;;;;6.30;3.20;;;4.90;99.90;;;;;;5053337;28;20234;-77
2021/12/09 13:55:16;;;;;;;2.80;2.40;;;4.90;99.90;;;;;;5054122;28;20164;-77
2021/12/09 13:57:54;;;;;;;3.17;2.17;;;4.90;99.90;;;;;;5034993;28;20580;-77
2021/12/09 14:00:26;;;;;;;6.43;2.33;;;4.90;99.90;;;;;;5053428;28;20715;-77
2021/12/09 14:02:53;;;;;;;6.87;2.43;;;4.90;99.90;;;;;;5035320;28;20219;-77
2021/12/09 14:05:19;;;;;;;2.67;2.13;;;4.90;99.90;;;;;;5053236;28;20183;-78
2021/12/09 14:07:59;;;;;;;3.90;2.40;;;4.90;99.90;;;;;;5052825;28;20201;-77